sensor_id;sensor_type;location;lat;lon;timestamp;P1;P2;P0
76049;PMS7003;64967;50.234;19.224;2023-10-09T00:02:08;5.00;3.00;3.00
76049;PMS7003;64967;50.234;19.224;2023-10-09T00:04:37;8.50;6.00;5.00
76049;PMS7003;64967;50.234;19.224;2023-10-09T00:07:07;4.50;3.00;3.00
76049;PMS7003;64967;50.234;19.224;2023-10-09T00:09:35;5.25;3.00;3.00
76049;PMS7003;64967;50.234;19.224;2023-10-09T00:12:14;2.00;2.00;2.00
76049;PMS7003;64967;50.234;19.224;2023-10-09T00:14:49;5.00;5.00;4.00
76049;PMS7003;64967;50.234;19.224;2023-10-09T00:17:17;1.75;1.75;1.75
76049;PMS7003;64967;50.234;19.224;2023-10-09T00:19:47;2.00;2.00;2.00
76049;PMS7003;64967;50.234;19.224;2023-10-09T00:22:16;6.00;5.00;3.00
76049;PMS7003;64967;50.234;19.224;2023-10-09T00:25:04;5.00;5.00;5.00
76049;PMS7003;64967;50.234;19.224;2023-10-09T00:27:41;1.50;1.50;1.25
76049;PMS7003;64967;50.234;19.224;2023-10-09T00:30:12;1.00;1.00;0.50
76049;PMS7003;64967;50.234;19.224;2023-10-09T00:32:45;3.00;3.00;2.25
76049;PMS7003;64967;50.234;19.224;2023-10-09T00:35:37;3.00;2.75;2.00
76049;PMS7003;64967;50.234;19.224;2023-10-09T00:38:12;1.25;1.25;0.50
76049;PMS7003;64967;50.234;19.224;2023-10-09T00:40:50;1.75;1.00;0.75
76049;PMS7003;64967;50.234;19.224;2023-10-09T00:43:36;5.25;5.00;3.50
76049;PMS7003;64967;50.234;19.224;2023-10-09T00:46:05;10.50;8.50;6.50
76049;PMS7003;64967;50.234;19.224;2023-10-09T00:48:54;6.50;4.50;3.00
76049;PMS7003;64967;50.234;19.224;2023-10-09T00:51:24;6.00;4.50;3.00
76049;PMS7003;64967;50.234;19.224;2023-10-09T00:53:55;4.50;3.00;3.00
76049;PMS7003;64967;50.234;19.224;2023-10-09T00:56:25;7.00;6.00;5.00
76049;PMS7003;64967;50.234;19.224;2023-10-09T00:58:58;12.50;10.00;9.00
76049;PMS7003;64967;50.234;19.224;2023-10-09T01:01:35;10.50;9.00;6.00
76049;PMS7003;64967;50.234;19.224;2023-10-09T01:04:07;15.75;10.50;7.00
76049;PMS7003;64967;50.234;19.224;2023-10-09T01:06:38;15.75;10.00;7.00
76049;PMS7003;64967;50.234;19.224;2023-10-09T01:09:11;11.00;7.00;6.00
76049;PMS7003;64967;50.234;19.224;2023-10-09T01:11:41;9.00;7.00;5.00
76049;PMS7003;64967;50.234;19.224;2023-10-09T01:14:26;5.00;2.75;2.25
76049;PMS7003;64967;50.234;19.224;2023-10-09T01:16:53;3.75;3.00;2.50
76049;PMS7003;64967;50.234;19.224;2023-10-09T01:19:21;1.75;1.75;1.00
76049;PMS7003;64967;50.234;19.224;2023-10-09T01:21:51;5.75;4.00;2.75
76049;PMS7003;64967;50.234;19.224;2023-10-09T01:24:18;3.00;3.00;2.75
76049;PMS7003;64967;50.234;19.224;2023-10-09T01:26:49;3.00;3.00;2.50
76049;PMS7003;64967;50.234;19.224;2023-10-09T01:29:20;5.00;3.00;2.25
76049;PMS7003;64967;50.234;19.224;2023-10-09T01:34:23;6.00;5.00;3.00
76049;PMS7003;64967;50.234;19.224;2023-10-09T01:37:19;3.50;3.50;1.75
76049;PMS7003;64967;50.234;19.224;2023-10-09T01:39:55;1.25;0.50;0.50
76049;PMS7003;64967;50.234;19.224;2023-10-09T01:42:45;3.00;2.00;2.00
76049;PMS7003;64967;50.234;19.224;2023-10-09T01:45:12;6.00;5.00;3.00
76049;PMS7003;64967;50.234;19.224;2023-10-09T01:47:45;4.50;4.50;3.00
76049;PMS7003;64967;50.234;19.224;2023-10-09T01:50:18;6.25;6.00;5.00
76049;PMS7003;64967;50.234;19.224;2023-10-09T01:52:47;10.50;8.00;7.00
76049;PMS7003;64967;50.234;19.224;2023-10-09T01:55:16;6.00;5.25;4.50
76049;PMS7003;64967;50.234;19.224;2023-10-09T01:58:06;7.50;5.00;3.00
76049;PMS7003;64967;50.234;19.224;2023-10-09T02:00:51;5.75;3.00;2.75
76049;PMS7003;64967;50.234;19.224;2023-10-09T02:03:22;2.00;2.00;1.75
76049;PMS7003;64967;50.234;19.224;2023-10-09T02:05:55;3.00;3.00;2.50
76049;PMS7003;64967;50.234;19.224;2023-10-09T02:08:44;3.00;2.00;1.50
76049;PMS7003;64967;50.234;19.224;2023-10-09T02:11:16;7.25;5.75;5.00
76049;PMS7003;64967;50.234;19.224;2023-10-09T02:14:04;7.00;6.00;5.00
76049;PMS7003;64967;50.234;19.224;2023-10-09T02:16:47;5.25;5.00;2.75
76049;PMS7003;64967;50.234;19.224;2023-10-09T02:19:40;5.50;5.00;3.00
76049;PMS7003;64967;50.234;19.224;2023-10-09T02:22:11;6.00;5.00;3.00
76049;PMS7003;64967;50.234;19.224;2023-10-09T02:24:42;6.25;5.50;5.00
76049;PMS7003;64967;50.234;19.224;2023-10-09T02:27:17;5.25;4.00;3.00
76049;PMS7003;64967;50.234;19.224;2023-10-09T02:30:03;7.50;5.00;4.00
76049;PMS7003;64967;50.234;19.224;2023-10-09T02:32:45;5.00;2.50;2.25
76049;PMS7003;64967;50.234;19.224;2023-10-09T02:35:16;5.00;3.00;2.00
76049;PMS7003;64967;50.234;19.224;2023-10-09T02:37:54;3.00;1.00;1.00
76049;PMS7003;64967;50.234;19.224;2023-10-09T02:40:26;2.25;2.00;2.00
76049;PMS7003;64967;50.234;19.224;2023-10-09T02:43:07;3.50;3.00;2.00
76049;PMS7003;64967;50.234;19.224;2023-10-09T02:45:39;4.00;2.50;2.50
76049;PMS7003;64967;50.234;19.224;2023-10-09T02:48:17;5.50;4.00;3.00
76049;PMS7003;64967;50.234;19.224;2023-10-09T02:50:51;5.75;5.75;5.00
76049;PMS7003;64967;50.234;19.224;2023-10-09T02:53:17;2.00;2.00;1.00
76049;PMS7003;64967;50.234;19.224;2023-10-09T02:55:55;4.00;2.00;1.75
76049;PMS7003;64967;50.234;19.224;2023-10-09T02:58:40;14.50;11.00;8.00
76049;PMS7003;64967;50.234;19.224;2023-10-09T03:01:10;10.75;8.50;7.25
76049;PMS7003;64967;50.234;19.224;2023-10-09T03:03:42;6.75;6.75;6.00
76049;PMS7003;64967;50.234;19.224;2023-10-09T03:06:13;7.75;6.75;6.00
76049;PMS7003;64967;50.234;19.224;2023-10-09T03:08:50;4.50;3.50;3.00
76049;PMS7003;64967;50.234;19.224;2023-10-09T03:11:17;9.50;7.75;7.00
76049;PMS7003;64967;50.234;19.224;2023-10-09T03:13:45;7.50;6.25;5.25
76049;PMS7003;64967;50.234;19.224;2023-10-09T03:16:11;6.00;5.25;4.50
76049;PMS7003;64967;50.234;19.224;2023-10-09T03:18:45;9.25;7.50;6.25
76049;PMS7003;64967;50.234;19.224;2023-10-09T03:21:13;12.00;8.00;7.00
76049;PMS7003;64967;50.234;19.224;2023-10-09T03:23:40;6.50;6.00;5.50
76049;PMS7003;64967;50.234;19.224;2023-10-09T03:26:07;11.50;7.25;6.00
76049;PMS7003;64967;50.234;19.224;2023-10-09T03:28:47;10.75;10.25;7.00
76049;PMS7003;64967;50.234;19.224;2023-10-09T03:31:14;8.50;8.50;6.00
76049;PMS7003;64967;50.234;19.224;2023-10-09T03:33:41;7.25;7.00;5.75
76049;PMS7003;64967;50.234;19.224;2023-10-09T03:36:08;10.50;9.50;6.75
76049;PMS7003;64967;50.234;19.224;2023-10-09T03:38:38;9.25;6.75;5.50
76049;PMS7003;64967;50.234;19.224;2023-10-09T03:41:05;4.50;4.50;2.75
76049;PMS7003;64967;50.234;19.224;2023-10-09T03:43:33;6.50;6.50;5.00
76049;PMS7003;64967;50.234;19.224;2023-10-09T03:46:04;6.75;6.75;6.00
76049;PMS7003;64967;50.234;19.224;2023-10-09T03:48:32;5.25;3.00;2.75
76049;PMS7003;64967;50.234;19.224;2023-10-09T03:50:59;7.00;5.25;5.00
76049;PMS7003;64967;50.234;19.224;2023-10-09T03:53:35;4.50;2.75;2.00
76049;PMS7003;64967;50.234;19.224;2023-10-09T03:56:03;3.50;3.50;2.50
76049;PMS7003;64967;50.234;19.224;2023-10-09T03:58:38;9.00;6.00;4.25
76049;PMS7003;64967;50.234;19.224;2023-10-09T04:01:09;7.25;6.00;5.25
76049;PMS7003;64967;50.234;19.224;2023-10-09T04:03:55;6.00;5.00;3.00
76049;PMS7003;64967;50.234;19.224;2023-10-09T04:06:26;7.00;6.75;5.00
76049;PMS7003;64967;50.234;19.224;2023-10-09T04:09:03;5.00;5.00;4.00
76049;PMS7003;64967;50.234;19.224;2023-10-09T04:11:46;4.50;3.00;2.00
76049;PMS7003;64967;50.234;19.224;2023-10-09T04:14:38;3.00;3.00;2.75
76049;PMS7003;64967;50.234;19.224;2023-10-09T04:17:16;3.00;2.75;2.50
76049;PMS7003;64967;50.234;19.224;2023-10-09T04:19:49;6.50;6.50;6.00
76049;PMS7003;64967;50.234;19.224;2023-10-09T04:22:36;5.50;4.00;4.00
76049;PMS7003;64967;50.234;19.224;2023-10-09T04:25:17;6.00;4.50;2.75
76049;PMS7003;64967;50.234;19.224;2023-10-09T04:28:01;3.75;3.75;3.25
76049;PMS7003;64967;50.234;19.224;2023-10-09T04:30:45;7.00;7.00;6.00
76049;PMS7003;64967;50.234;19.224;2023-10-09T04:33:22;2.50;2.50;2.00
76049;PMS7003;64967;50.234;19.224;2023-10-09T04:36:02;7.50;7.00;5.50
76049;PMS7003;64967;50.234;19.224;2023-10-09T04:38:45;8.00;7.25;6.00
76049;PMS7003;64967;50.234;19.224;2023-10-09T04:41:41;7.00;7.00;6.00
76049;PMS7003;64967;50.234;19.224;2023-10-09T04:44:08;11.00;9.50;6.75
76049;PMS7003;64967;50.234;19.224;2023-10-09T04:46:55;8.00;7.75;6.75
76049;PMS7003;64967;50.234;19.224;2023-10-09T04:49:40;7.00;7.00;6.00
76049;PMS7003;64967;50.234;19.224;2023-10-09T04:52:28;9.50;8.00;7.00
76049;PMS7003;64967;50.234;19.224;2023-10-09T04:54:58;12.25;11.25;7.00
76049;PMS7003;64967;50.234;19.224;2023-10-09T04:57:41;10.25;6.00;5.25
76049;PMS7003;64967;50.234;19.224;2023-10-09T05:00:10;8.25;7.00;6.75
76049;PMS7003;64967;50.234;19.224;2023-10-09T05:02:55;8.25;8.25;7.50
76049;PMS7003;64967;50.234;19.224;2023-10-09T05:05:31;5.75;4.00;3.00
76049;PMS7003;64967;50.234;19.224;2023-10-09T05:08:16;3.50;3.50;3.00
76049;PMS7003;64967;50.234;19.224;2023-10-09T05:10:57;5.00;3.50;3.00
76049;PMS7003;64967;50.234;19.224;2023-10-09T05:13:36;5.75;5.00;5.00
76049;PMS7003;64967;50.234;19.224;2023-10-09T05:16:15;2.75;2.75;2.00
76049;PMS7003;64967;50.234;19.224;2023-10-09T05:18:49;2.25;2.00;1.00
76049;PMS7003;64967;50.234;19.224;2023-10-09T05:21:39;3.00;2.00;2.00
76049;PMS7003;64967;50.234;19.224;2023-10-09T05:24:12;5.75;3.00;1.00
76049;PMS7003;64967;50.234;19.224;2023-10-09T05:26:41;2.75;2.00;1.25
76049;PMS7003;64967;50.234;19.224;2023-10-09T05:31:54;7.00;6.00;5.00
76049;PMS7003;64967;50.234;19.224;2023-10-09T05:34:42;5.50;4.50;4.25
76049;PMS7003;64967;50.234;19.224;2023-10-09T05:37:43;9.50;6.75;5.00
76049;PMS7003;64967;50.234;19.224;2023-10-09T05:40:09;6.75;6.25;6.00
76049;PMS7003;64967;50.234;19.224;2023-10-09T05:42:43;8.00;7.00;4.00
76049;PMS7003;64967;50.234;19.224;2023-10-09T05:47:44;7.75;5.50;5.25
76049;PMS7003;64967;50.234;19.224;2023-10-09T05:50:20;11.75;7.75;6.50
76049;PMS7003;64967;50.234;19.224;2023-10-09T05:52:50;9.75;6.00;5.25
76049;PMS7003;64967;50.234;19.224;2023-10-09T05:55:17;7.75;6.25;5.00
76049;PMS7003;64967;50.234;19.224;2023-10-09T05:57:51;7.75;7.00;5.00
76049;PMS7003;64967;50.234;19.224;2023-10-09T06:00:37;8.00;7.75;6.00
76049;PMS7003;64967;50.234;19.224;2023-10-09T06:03:22;7.50;6.50;5.00
76049;PMS7003;64967;50.234;19.224;2023-10-09T06:05:53;7.00;5.25;3.50
76049;PMS7003;64967;50.234;19.224;2023-10-09T06:08:24;7.00;6.25;5.25
76049;PMS7003;64967;50.234;19.224;2023-10-09T06:11:08;10.50;9.25;7.00
76049;PMS7003;64967;50.234;19.224;2023-10-09T06:13:56;8.25;8.00;5.50
76049;PMS7003;64967;50.234;19.224;2023-10-09T06:16:30;6.25;3.00;2.50
76049;PMS7003;64967;50.234;19.224;2023-10-09T06:19:26;11.25;7.75;6.25
76049;PMS7003;64967;50.234;19.224;2023-10-09T06:24:30;9.75;9.50;8.00
76049;PMS7003;64967;50.234;19.224;2023-10-09T06:27:08;7.75;7.00;4.75
76049;PMS7003;64967;50.234;19.224;2023-10-09T06:29:39;4.00;4.00;1.00
76049;PMS7003;64967;50.234;19.224;2023-10-09T06:32:15;6.00;5.25;4.00
76049;PMS7003;64967;50.234;19.224;2023-10-09T06:34:56;3.25;3.00;3.00
76049;PMS7003;64967;50.234;19.224;2023-10-09T06:37:43;7.00;7.00;6.00
76049;PMS7003;64967;50.234;19.224;2023-10-09T06:40:36;7.00;6.75;5.75
76049;PMS7003;64967;50.234;19.224;2023-10-09T06:43:18;5.75;5.75;5.00
76049;PMS7003;64967;50.234;19.224;2023-10-09T06:45:49;3.50;3.50;3.00
76049;PMS7003;64967;50.234;19.224;2023-10-09T06:48:24;6.00;4.50;3.00
76049;PMS7003;64967;50.234;19.224;2023-10-09T06:51:04;5.75;5.75;4.75
76049;PMS7003;64967;50.234;19.224;2023-10-09T06:53:53;7.25;6.00;3.50
76049;PMS7003;64967;50.234;19.224;2023-10-09T06:56:32;7.00;6.75;4.50
76049;PMS7003;64967;50.234;19.224;2023-10-09T06:59:05;5.00;3.50;3.00
76049;PMS7003;64967;50.234;19.224;2023-10-09T07:01:48;5.50;3.00;2.00
76049;PMS7003;64967;50.234;19.224;2023-10-09T07:04:36;4.00;3.00;3.00
76049;PMS7003;64967;50.234;19.224;2023-10-09T07:07:04;3.25;2.50;2.00
76049;PMS7003;64967;50.234;19.224;2023-10-09T07:09:42;6.25;6.25;4.25
76049;PMS7003;64967;50.234;19.224;2023-10-09T07:12:10;7.25;6.25;4.50
76049;PMS7003;64967;50.234;19.224;2023-10-09T07:14:41;8.75;6.50;4.00
76049;PMS7003;64967;50.234;19.224;2023-10-09T07:17:08;6.00;5.00;4.00
76049;PMS7003;64967;50.234;19.224;2023-10-09T07:19:54;3.75;2.00;1.00
76049;PMS7003;64967;50.234;19.224;2023-10-09T07:22:21;4.50;3.00;2.75
76049;PMS7003;64967;50.234;19.224;2023-10-09T07:24:55;4.00;3.00;2.00
76049;PMS7003;64967;50.234;19.224;2023-10-09T07:27:30;4.50;3.00;2.75
76049;PMS7003;64967;50.234;19.224;2023-10-09T07:30:18;6.00;4.00;3.00
76049;PMS7003;64967;50.234;19.224;2023-10-09T07:32:59;7.25;3.50;3.25
76049;PMS7003;64967;50.234;19.224;2023-10-09T07:40:40;8.50;6.75;6.00
76049;PMS7003;64967;50.234;19.224;2023-10-09T07:43:29;8.00;5.00;4.00
76049;PMS7003;64967;50.234;19.224;2023-10-09T07:46:11;6.50;4.50;4.00
76049;PMS7003;64967;50.234;19.224;2023-10-09T07:49:00;7.00;7.00;5.00
76049;PMS7003;64967;50.234;19.224;2023-10-09T07:51:39;4.75;4.75;4.25
76049;PMS7003;64967;50.234;19.224;2023-10-09T07:54:10;4.00;3.50;2.75
76049;PMS7003;64967;50.234;19.224;2023-10-09T07:56:42;6.00;4.50;4.00
76049;PMS7003;64967;50.234;19.224;2023-10-09T07:59:12;4.00;3.00;2.00
76049;PMS7003;64967;50.234;19.224;2023-10-09T08:01:40;5.50;3.75;3.00
76049;PMS7003;64967;50.234;19.224;2023-10-09T08:04:28;2.75;2.00;2.00
76049;PMS7003;64967;50.234;19.224;2023-10-09T08:07:06;3.50;3.00;2.25
76049;PMS7003;64967;50.234;19.224;2023-10-09T08:09:55;4.00;3.00;2.00
76049;PMS7003;64967;50.234;19.224;2023-10-09T08:12:40;2.25;1.25;1.25
76049;PMS7003;64967;50.234;19.224;2023-10-09T08:15:11;2.00;2.00;2.00
76049;PMS7003;64967;50.234;19.224;2023-10-09T08:17:51;1.75;1.75;1.25
76049;PMS7003;64967;50.234;19.224;2023-10-09T08:20:26;2.00;1.00;1.00
76049;PMS7003;64967;50.234;19.224;2023-10-09T08:22:53;3.00;2.00;2.00
76049;PMS7003;64967;50.234;19.224;2023-10-09T08:25:25;5.00;3.25;3.00
76049;PMS7003;64967;50.234;19.224;2023-10-09T08:27:57;3.00;3.00;3.00
76049;PMS7003;64967;50.234;19.224;2023-10-09T08:30:40;4.00;3.00;2.50
76049;PMS7003;64967;50.234;19.224;2023-10-09T08:33:16;3.00;3.00;2.50
76049;PMS7003;64967;50.234;19.224;2023-10-09T08:35:55;5.00;3.00;2.00
76049;PMS7003;64967;50.234;19.224;2023-10-09T08:38:32;3.00;3.00;3.00
76049;PMS7003;64967;50.234;19.224;2023-10-09T08:41:09;5.00;3.75;3.25
76049;PMS7003;64967;50.234;19.224;2023-10-09T08:43:47;4.00;2.25;2.00
76049;PMS7003;64967;50.234;19.224;2023-10-09T08:46:27;4.50;3.00;2.50
76049;PMS7003;64967;50.234;19.224;2023-10-09T08:48:56;3.00;3.00;2.00
76049;PMS7003;64967;50.234;19.224;2023-10-09T08:51:26;3.00;3.00;2.00
76049;PMS7003;64967;50.234;19.224;2023-10-09T08:53:53;3.00;2.00;1.50
76049;PMS7003;64967;50.234;19.224;2023-10-09T08:56:21;4.00;3.00;3.00
76049;PMS7003;64967;50.234;19.224;2023-10-09T08:58:56;2.50;1.00;0.25
76049;PMS7003;64967;50.234;19.224;2023-10-09T09:01:24;3.75;3.00;3.00
76049;PMS7003;64967;50.234;19.224;2023-10-09T09:03:52;3.00;3.00;3.00
76049;PMS7003;64967;50.234;19.224;2023-10-09T09:06:23;2.50;2.50;2.00
76049;PMS7003;64967;50.234;19.224;2023-10-09T09:08:50;2.50;2.00;2.00
76049;PMS7003;64967;50.234;19.224;2023-10-09T09:11:26;2.25;1.25;1.25
76049;PMS7003;64967;50.234;19.224;2023-10-09T09:16:40;2.00;2.00;1.00
76049;PMS7003;64967;50.234;19.224;2023-10-09T09:19:10;1.00;0.00;0.00
76049;PMS7003;64967;50.234;19.224;2023-10-09T09:21:52;1.50;1.00;0.75
76049;PMS7003;64967;50.234;19.224;2023-10-09T09:24:25;0.50;0.50;0.25
76049;PMS7003;64967;50.234;19.224;2023-10-09T09:26:54;1.00;0.50;0.00
76049;PMS7003;64967;50.234;19.224;2023-10-09T09:29:47;0.75;0.75;0.00
76049;PMS7003;64967;50.234;19.224;2023-10-09T09:32:26;1.00;0.25;0.00
76049;PMS7003;64967;50.234;19.224;2023-10-09T09:35:11;0.75;0.75;0.25
76049;PMS7003;64967;50.234;19.224;2023-10-09T09:37:52;2.00;1.00;1.00
76049;PMS7003;64967;50.234;19.224;2023-10-09T09:40:21;1.00;0.00;0.00
76049;PMS7003;64967;50.234;19.224;2023-10-09T09:43:00;0.75;0.50;0.25
76049;PMS7003;64967;50.234;19.224;2023-10-09T09:45:34;1.00;0.25;0.00
76049;PMS7003;64967;50.234;19.224;2023-10-09T09:48:02;0.50;0.00;0.00
76049;PMS7003;64967;50.234;19.224;2023-10-09T09:50:33;1.00;0.00;0.00
76049;PMS7003;64967;50.234;19.224;2023-10-09T09:53:03;0.00;0.00;0.00
76049;PMS7003;64967;50.234;19.224;2023-10-09T09:55:34;0.75;0.75;0.50
76049;PMS7003;64967;50.234;19.224;2023-10-09T09:58:09;0.00;0.00;0.00
76049;PMS7003;64967;50.234;19.224;2023-10-09T10:00:45;1.00;0.00;0.00
76049;PMS7003;64967;50.234;19.224;2023-10-09T10:05:53;3.00;2.00;1.75
76049;PMS7003;64967;50.234;19.224;2023-10-09T10:08:24;2.75;1.00;1.00
76049;PMS7003;64967;50.234;19.224;2023-10-09T10:10:59;3.00;2.50;2.00
76049;PMS7003;64967;50.234;19.224;2023-10-09T10:13:54;1.25;1.25;1.00
76049;PMS7003;64967;50.234;19.224;2023-10-09T10:16:22;1.00;1.00;0.75
76049;PMS7003;64967;50.234;19.224;2023-10-09T10:18:53;0.00;0.00;0.00
76049;PMS7003;64967;50.234;19.224;2023-10-09T10:21:34;0.25;0.25;0.00
76049;PMS7003;64967;50.234;19.224;2023-10-09T10:27:18;1.00;0.00;0.00
76049;PMS7003;64967;50.234;19.224;2023-10-09T10:32:58;0.00;0.00;0.00
76049;PMS7003;64967;50.234;19.224;2023-10-09T10:35:44;0.00;0.00;0.00
76049;PMS7003;64967;50.234;19.224;2023-10-09T10:38:23;0.00;0.00;0.00
76049;PMS7003;64967;50.234;19.224;2023-10-09T10:40:51;0.00;0.00;0.00
76049;PMS7003;64967;50.234;19.224;2023-10-09T10:43:23;0.00;0.00;0.00
76049;PMS7003;64967;50.234;19.224;2023-10-09T10:46:14;2.00;1.00;1.00
76049;PMS7003;64967;50.234;19.224;2023-10-09T10:48:41;3.00;1.00;1.00
76049;PMS7003;64967;50.234;19.224;2023-10-09T10:51:13;1.50;0.00;0.00
76049;PMS7003;64967;50.234;19.224;2023-10-09T10:53:53;0.00;0.00;0.00
76049;PMS7003;64967;50.234;19.224;2023-10-09T10:56:26;1.00;1.00;0.00
76049;PMS7003;64967;50.234;19.224;2023-10-09T10:59:02;0.75;0.75;0.00
76049;PMS7003;64967;50.234;19.224;2023-10-09T11:01:35;0.75;0.25;0.00
76049;PMS7003;64967;50.234;19.224;2023-10-09T11:04:25;0.25;0.25;0.00
76049;PMS7003;64967;50.234;19.224;2023-10-09T11:07:13;0.00;0.00;0.00
76049;PMS7003;64967;50.234;19.224;2023-10-09T11:09:51;0.00;0.00;0.00
76049;PMS7003;64967;50.234;19.224;2023-10-09T11:12:26;0.00;0.00;0.00
76049;PMS7003;64967;50.234;19.224;2023-10-09T11:15:13;0.00;0.00;0.00
76049;PMS7003;64967;50.234;19.224;2023-10-09T11:18:02;0.75;0.00;0.00
76049;PMS7003;64967;50.234;19.224;2023-10-09T11:20:34;1.00;1.00;1.00
76049;PMS7003;64967;50.234;19.224;2023-10-09T11:23:05;0.00;0.00;0.00
76049;PMS7003;64967;50.234;19.224;2023-10-09T11:25:38;0.00;0.00;0.00
76049;PMS7003;64967;50.234;19.224;2023-10-09T11:28:17;0.75;0.75;0.25
76049;PMS7003;64967;50.234;19.224;2023-10-09T11:31:06;1.00;1.00;0.00
76049;PMS7003;64967;50.234;19.224;2023-10-09T11:33:48;0.00;0.00;0.00
76049;PMS7003;64967;50.234;19.224;2023-10-09T11:36:18;1.00;0.00;0.00
76049;PMS7003;64967;50.234;19.224;2023-10-09T11:39:00;0.00;0.00;0.00
76049;PMS7003;64967;50.234;19.224;2023-10-09T11:41:40;0.00;0.00;0.00
76049;PMS7003;64967;50.234;19.224;2023-10-09T11:44:10;0.00;0.00;0.00
76049;PMS7003;64967;50.234;19.224;2023-10-09T11:46:59;1.00;0.00;0.00
76049;PMS7003;64967;50.234;19.224;2023-10-09T11:49:53;1.00;0.00;0.00
76049;PMS7003;64967;50.234;19.224;2023-10-09T11:52:31;1.00;1.00;0.00
76049;PMS7003;64967;50.234;19.224;2023-10-09T11:55:05;0.00;0.00;0.00
76049;PMS7003;64967;50.234;19.224;2023-10-09T11:57:33;3.00;1.75;1.00
76049;PMS7003;64967;50.234;19.224;2023-10-09T12:00:02;1.00;1.00;1.00
76049;PMS7003;64967;50.234;19.224;2023-10-09T12:02:53;2.50;2.50;2.00
76049;PMS7003;64967;50.234;19.224;2023-10-09T12:05:21;3.00;2.50;2.00
76049;PMS7003;64967;50.234;19.224;2023-10-09T12:07:49;3.00;2.50;2.00
76049;PMS7003;64967;50.234;19.224;2023-10-09T12:10:23;3.00;2.00;2.00
76049;PMS7003;64967;50.234;19.224;2023-10-09T12:12:53;3.25;3.00;2.00
76049;PMS7003;64967;50.234;19.224;2023-10-09T12:15:20;1.75;1.00;1.00
76049;PMS7003;64967;50.234;19.224;2023-10-09T12:17:47;0.25;0.25;0.25
76049;PMS7003;64967;50.234;19.224;2023-10-09T12:20:14;0.50;0.50;0.00
76049;PMS7003;64967;50.234;19.224;2023-10-09T12:23:00;0.75;0.75;0.00
76049;PMS7003;64967;50.234;19.224;2023-10-09T12:25:31;0.00;0.00;0.00
76049;PMS7003;64967;50.234;19.224;2023-10-09T12:27:59;0.25;0.25;0.00
76049;PMS7003;64967;50.234;19.224;2023-10-09T12:30:31;0.25;0.25;0.00
76049;PMS7003;64967;50.234;19.224;2023-10-09T12:33:05;1.00;1.00;0.75
76049;PMS7003;64967;50.234;19.224;2023-10-09T12:35:37;2.00;1.00;1.00
76049;PMS7003;64967;50.234;19.224;2023-10-09T12:38:05;1.00;1.00;0.50
76049;PMS7003;64967;50.234;19.224;2023-10-09T12:40:36;1.50;1.25;1.00
76049;PMS7003;64967;50.234;19.224;2023-10-09T12:43:04;1.00;1.00;0.00
76049;PMS7003;64967;50.234;19.224;2023-10-09T12:45:33;1.00;1.00;0.00
76049;PMS7003;64967;50.234;19.224;2023-10-09T12:48:00;1.25;1.25;1.00
76049;PMS7003;64967;50.234;19.224;2023-10-09T12:50:30;0.75;0.25;0.25
76049;PMS7003;64967;50.234;19.224;2023-10-09T12:53:00;1.00;0.50;0.50
76049;PMS7003;64967;50.234;19.224;2023-10-09T12:55:36;1.00;0.00;0.00
76049;PMS7003;64967;50.234;19.224;2023-10-09T12:58:10;1.00;0.00;0.00
76049;PMS7003;64967;50.234;19.224;2023-10-09T13:00:42;1.00;1.00;1.00
76049;PMS7003;64967;50.234;19.224;2023-10-09T13:03:16;0.00;0.00;0.00
76049;PMS7003;64967;50.234;19.224;2023-10-09T13:08:22;2.00;1.00;1.00
76049;PMS7003;64967;50.234;19.224;2023-10-09T13:11:02;3.00;3.00;3.00
76049;PMS7003;64967;50.234;19.224;2023-10-09T13:13:43;4.25;3.00;2.00
76049;PMS7003;64967;50.234;19.224;2023-10-09T13:16:20;2.25;2.00;2.00
76049;PMS7003;64967;50.234;19.224;2023-10-09T13:18:57;0.75;0.00;0.00
76049;PMS7003;64967;50.234;19.224;2023-10-09T13:21:32;1.50;1.00;0.50
76049;PMS7003;64967;50.234;19.224;2023-10-09T13:23:58;2.00;0.00;0.00
76049;PMS7003;64967;50.234;19.224;2023-10-09T13:26:26;0.00;0.00;0.00
76049;PMS7003;64967;50.234;19.224;2023-10-09T13:29:00;0.00;0.00;0.00
76049;PMS7003;64967;50.234;19.224;2023-10-09T13:31:28;1.00;1.00;1.00
76049;PMS7003;64967;50.234;19.224;2023-10-09T13:33:59;0.00;0.00;0.00
76049;PMS7003;64967;50.234;19.224;2023-10-09T13:36:37;2.00;2.00;2.00
76049;PMS7003;64967;50.234;19.224;2023-10-09T13:39:04;0.75;0.00;0.00
76049;PMS7003;64967;50.234;19.224;2023-10-09T13:41:58;2.00;1.00;1.00
76049;PMS7003;64967;50.234;19.224;2023-10-09T13:44:27;1.00;1.00;1.00
76049;PMS7003;64967;50.234;19.224;2023-10-09T13:47:01;0.00;0.00;0.00
76049;PMS7003;64967;50.234;19.224;2023-10-09T13:49:32;1.75;1.75;1.50
76049;PMS7003;64967;50.234;19.224;2023-10-09T13:52:01;1.50;1.50;1.00
76049;PMS7003;64967;50.234;19.224;2023-10-09T13:54:29;3.00;2.00;1.50
76049;PMS7003;64967;50.234;19.224;2023-10-09T13:57:00;3.50;3.50;3.00
76049;PMS7003;64967;50.234;19.224;2023-10-09T13:59:31;3.00;2.50;2.00
76049;PMS7003;64967;50.234;19.224;2023-10-09T14:02:02;6.25;3.00;3.00
76049;PMS7003;64967;50.234;19.224;2023-10-09T14:04:36;2.75;2.00;1.75
76049;PMS7003;64967;50.234;19.224;2023-10-09T14:07:03;1.50;0.75;0.50
76049;PMS7003;64967;50.234;19.224;2023-10-09T14:09:32;1.50;1.00;0.75
76049;PMS7003;64967;50.234;19.224;2023-10-09T14:12:19;0.50;0.50;0.25
76049;PMS7003;64967;50.234;19.224;2023-10-09T14:14:48;1.00;1.00;1.00
76049;PMS7003;64967;50.234;19.224;2023-10-09T14:17:16;1.00;0.00;0.00
76049;PMS7003;64967;50.234;19.224;2023-10-09T14:19:51;1.00;0.00;0.00
76049;PMS7003;64967;50.234;19.224;2023-10-09T14:22:20;2.00;1.00;1.00
76049;PMS7003;64967;50.234;19.224;2023-10-09T14:24:50;0.75;0.75;0.75
76049;PMS7003;64967;50.234;19.224;2023-10-09T14:27:23;1.00;0.00;0.00
76049;PMS7003;64967;50.234;19.224;2023-10-09T14:29:54;1.00;1.00;1.00
76049;PMS7003;64967;50.234;19.224;2023-10-09T14:32:27;3.00;3.00;3.00
76049;PMS7003;64967;50.234;19.224;2023-10-09T14:35:01;0.00;0.00;0.00
76049;PMS7003;64967;50.234;19.224;2023-10-09T14:37:28;1.00;1.00;1.00
76049;PMS7003;64967;50.234;19.224;2023-10-09T14:39:56;8.25;5.75;3.25
76049;PMS7003;64967;50.234;19.224;2023-10-09T14:42:25;4.00;4.00;3.25
76049;PMS7003;64967;50.234;19.224;2023-10-09T14:44:54;3.00;3.00;2.75
76049;PMS7003;64967;50.234;19.224;2023-10-09T14:47:22;9.50;9.00;8.00
76049;PMS7003;64967;50.234;19.224;2023-10-09T14:49:49;7.50;6.25;4.00
76049;PMS7003;64967;50.234;19.224;2023-10-09T14:52:16;4.00;3.75;3.00
76049;PMS7003;64967;50.234;19.224;2023-10-09T14:54:43;7.00;4.00;3.00
76049;PMS7003;64967;50.234;19.224;2023-10-09T14:57:13;8.75;8.25;8.00
76049;PMS7003;64967;50.234;19.224;2023-10-09T14:59:41;9.75;7.00;5.00
76049;PMS7003;64967;50.234;19.224;2023-10-09T15:02:10;7.00;6.00;4.00
76049;PMS7003;64967;50.234;19.224;2023-10-09T15:04:39;6.25;6.25;6.00
76049;PMS7003;64967;50.234;19.224;2023-10-09T15:07:06;7.25;6.75;5.25
76049;PMS7003;64967;50.234;19.224;2023-10-09T15:09:34;9.00;6.50;5.00
76049;PMS7003;64967;50.234;19.224;2023-10-09T15:12:06;8.50;6.75;4.00
76049;PMS7003;64967;50.234;19.224;2023-10-09T15:14:34;3.25;2.50;2.25
76049;PMS7003;64967;50.234;19.224;2023-10-09T15:17:01;2.25;2.00;1.00
76049;PMS7003;64967;50.234;19.224;2023-10-09T15:19:30;3.75;3.00;2.00
76049;PMS7003;64967;50.234;19.224;2023-10-09T15:21:57;6.25;6.00;4.00
76049;PMS7003;64967;50.234;19.224;2023-10-09T15:24:26;4.00;3.25;3.00